Carland, Michigan
Current Conditions -  °F | °C
As of 3:14 AM on Saturday 25 Oct 2014 (Local Time) from KRNP Reporting Station
Haze Haze  
Wind Chill:   Ceiling: Unl
Heat Index:   Visibility: 5mi
Dew Point:   Wind: 3mph
Humidity: 99%   Direction: 200°SSW
Pressure: 29.88"   Gusts: NA
Location:  43.0981°N, 84.3788°W
Report Text: KRNP 250714Z AUTO 20003KT 5SM BR CLR 08/08 A2988 RMK AO2 T00800079
Loading
Personal Weather Stations






























Interactive Weather Map
Tropical Storm Tracking
New forecast layout! Learn more

10-Day Weather Forecast

Advertisements
Track Severe Weather on mobile